Main page
METAR-TAF:

METAR-TAF

Airports :

Maastricht Aachen Airport

Maastricht Aachen, Netherlands

latitude: 50-55N, longitude: 005-47E, elevation: 114 m

Current weather observation

The report was made 5 minutes ago, at 21:55 UTC
Wind 6 kt from the North, varying between North/Northwest and Northeast
Temperature 17°C
Humidity 59%
Pressure 1024 hPa
Visibility 10 km or more

METAR: EHBK 072155Z AUTO 01006KT 330V050 9999 NCD 17/09 Q1024

Time: 00:00 (22:00 UTC)

Forecast

The report was made 5 hours and 9 minutes ago, at 16:51 UTC
Forecast valid from 07 at 18 UTC to 08 at 24 UTC
Wind 7 kt from the North
Visibility 10 km or more
no clouds below 1500 m and no cumulonimbus

TAF: EHBK 071651Z 0718/0824 01007KT CAVOK

Weather observations and forecasts of more than 4000 airports (METAR and TAF reports).

The available stations are represented by yellow and red dots on the map.

Hover mouse over dot to see the name of the station.

Then click to see weather observations and forecasts.

To change the map : click on the green buttons with a black cross to zoom in, on the green button with a dash to zoom out, or on the green arrows for adjacent maps.


METAR-TAF: